sensor_id;sensor_type;location;lat;lon;timestamp;pressure;altitude;pressure_sealevel;temperature;humidity
45894;BME280;31603;51.148;16.932;2022-07-29T00:00:44;100405.19;;;18.00;82.10
45894;BME280;31603;51.148;16.932;2022-07-29T00:03:11;100404.63;;;17.98;83.26
45894;BME280;31603;51.148;16.932;2022-07-29T00:05:38;100369.59;;;17.68;87.51
45894;BME280;31603;51.148;16.932;2022-07-29T00:08:05;100382.03;;;17.77;86.98
45894;BME280;31603;51.148;16.932;2022-07-29T00:10:32;100389.81;;;17.64;85.32
45894;BME280;31603;51.148;16.932;2022-07-29T00:13:00;100411.31;;;17.68;88.93
45894;BME280;31603;51.148;16.932;2022-07-29T00:15:27;100413.75;;;17.48;89.15
45894;BME280;31603;51.148;16.932;2022-07-29T00:17:53;100416.41;;;17.88;86.27
45894;BME280;31603;51.148;16.932;2022-07-29T00:20:20;100413.91;;;17.41;92.56
45894;BME280;31603;51.148;16.932;2022-07-29T00:22:46;100403.28;;;17.38;93.24
45894;BME280;31603;51.148;16.932;2022-07-29T00:25:13;100379.94;;;17.22;98.28
45894;BME280;31603;51.148;16.932;2022-07-29T00:27:39;100388.44;;;17.16;100.00
45894;BME280;31603;51.148;16.932;2022-07-29T00:30:08;100403.56;;;17.08;100.00
45894;BME280;31603;51.148;16.932;2022-07-29T00:32:34;100367.56;;;17.64;97.69
45894;BME280;31603;51.148;16.932;2022-07-29T00:35:01;100407.06;;;17.77;96.48
45894;BME280;31603;51.148;16.932;2022-07-29T00:37:45;100396.09;;;17.54;100.00
45894;BME280;31603;51.148;16.932;2022-07-29T00:40:12;100402.47;;;17.71;100.00
45894;BME280;31603;51.148;16.932;2022-07-29T00:42:42;100397.50;;;17.56;98.04
45894;BME280;31603;51.148;16.932;2022-07-29T00:45:11;100408.44;;;17.01;100.00
45894;BME280;31603;51.148;16.932;2022-07-29T00:47:38;100408.19;;;17.02;100.00
45894;BME280;31603;51.148;16.932;2022-07-29T00:50:06;100402.59;;;17.14;100.00
45894;BME280;31603;51.148;16.932;2022-07-29T00:52:34;100377.94;;;16.89;100.00
45894;BME280;31603;51.148;16.932;2022-07-29T00:55:02;100405.25;;;16.80;100.00
45894;BME280;31603;51.148;16.932;2022-07-29T00:57:29;100390.16;;;17.33;100.00
45894;BME280;31603;51.148;16.932;2022-07-29T00:59:58;100392.84;;;17.28;100.00
45894;BME280;31603;51.148;16.932;2022-07-29T01:02:27;100411.22;;;17.46;100.00
45894;BME280;31603;51.148;16.932;2022-07-29T01:04:56;100401.78;;;17.64;100.00
45894;BME280;31603;51.148;16.932;2022-07-29T01:07:24;100396.75;;;17.44;100.00
45894;BME280;31603;51.148;16.932;2022-07-29T01:09:53;100403.03;;;16.94;100.00
45894;BME280;31603;51.148;16.932;2022-07-29T01:12:23;100394.84;;;17.16;100.00
45894;BME280;31603;51.148;16.932;2022-07-29T01:14:52;100402.75;;;17.24;100.00
45894;BME280;31603;51.148;16.932;2022-07-29T01:17:23;100405.59;;;16.72;100.00
45894;BME280;31603;51.148;16.932;2022-07-29T01:19:56;100404.25;;;16.34;100.00
45894;BME280;31603;51.148;16.932;2022-07-29T01:22:41;100395.22;;;16.79;100.00
45894;BME280;31603;51.148;16.932;2022-07-29T01:25:28;100404.75;;;17.12;100.00
45894;BME280;31603;51.148;16.932;2022-07-29T01:28:11;100404.31;;;17.32;100.00
45894;BME280;31603;51.148;16.932;2022-07-29T01:30:45;100386.88;;;17.37;100.00
45894;BME280;31603;51.148;16.932;2022-07-29T01:33:15;100392.47;;;17.08;100.00
45894;BME280;31603;51.148;16.932;2022-07-29T01:36:01;100357.97;;;16.52;100.00
45894;BME280;31603;51.148;16.932;2022-07-29T01:38:30;100324.38;;;16.65;100.00
45894;BME280;31603;51.148;16.932;2022-07-29T01:41:01;100392.25;;;16.98;100.00
45894;BME280;31603;51.148;16.932;2022-07-29T01:43:34;100375.03;;;16.84;100.00
45894;BME280;31603;51.148;16.932;2022-07-29T01:46:08;100386.13;;;16.96;100.00
45894;BME280;31603;51.148;16.932;2022-07-29T01:48:38;100383.16;;;17.02;100.00
45894;BME280;31603;51.148;16.932;2022-07-29T01:51:12;100381.44;;;16.84;100.00
45894;BME280;31603;51.148;16.932;2022-07-29T01:53:46;100394.59;;;16.89;100.00
45894;BME280;31603;51.148;16.932;2022-07-29T01:56:14;100380.38;;;16.74;100.00
45894;BME280;31603;51.148;16.932;2022-07-29T01:58:43;100365.28;;;16.81;100.00
45894;BME280;31603;51.148;16.932;2022-07-29T02:01:13;100374.47;;;17.27;100.00
45894;BME280;31603;51.148;16.932;2022-07-29T02:03:42;100375.19;;;16.77;100.00
45894;BME280;31603;51.148;16.932;2022-07-29T02:06:10;100373.13;;;16.32;100.00
45894;BME280;31603;51.148;16.932;2022-07-29T02:08:38;100350.25;;;16.02;100.00
45894;BME280;31603;51.148;16.932;2022-07-29T02:11:06;100373.66;;;16.06;100.00
45894;BME280;31603;51.148;16.932;2022-07-29T02:13:35;100361.25;;;16.49;100.00
45894;BME280;31603;51.148;16.932;2022-07-29T02:16:05;100332.19;;;16.40;100.00
45894;BME280;31603;51.148;16.932;2022-07-29T02:18:36;100362.50;;;16.29;100.00
45894;BME280;31603;51.148;16.932;2022-07-29T02:21:03;100359.06;;;16.51;100.00
45894;BME280;31603;51.148;16.932;2022-07-29T02:23:35;100371.19;;;16.85;100.00
45894;BME280;31603;51.148;16.932;2022-07-29T02:26:02;100369.97;;;16.81;100.00
45894;BME280;31603;51.148;16.932;2022-07-29T02:28:30;100355.91;;;16.59;100.00
45894;BME280;31603;51.148;16.932;2022-07-29T02:31:01;100354.72;;;16.55;100.00
45894;BME280;31603;51.148;16.932;2022-07-29T02:33:29;100364.41;;;16.81;100.00
45894;BME280;31603;51.148;16.932;2022-07-29T02:35:59;100340.00;;;16.54;100.00
45894;BME280;31603;51.148;16.932;2022-07-29T02:38:34;100364.34;;;16.24;100.00
45894;BME280;31603;51.148;16.932;2022-07-29T02:41:18;100358.69;;;16.59;100.00
45894;BME280;31603;51.148;16.932;2022-07-29T02:43:47;100345.31;;;16.84;100.00
45894;BME280;31603;51.148;16.932;2022-07-29T02:46:18;100369.06;;;16.52;100.00
45894;BME280;31603;51.148;16.932;2022-07-29T02:48:57;100371.38;;;16.55;100.00
45894;BME280;31603;51.148;16.932;2022-07-29T02:51:34;100370.44;;;16.37;100.00
45894;BME280;31603;51.148;16.932;2022-07-29T02:54:07;100361.41;;;16.42;100.00
45894;BME280;31603;51.148;16.932;2022-07-29T02:56:34;100359.56;;;16.48;100.00
45894;BME280;31603;51.148;16.932;2022-07-29T02:59:05;100331.28;;;16.74;100.00
45894;BME280;31603;51.148;16.932;2022-07-29T03:01:35;100353.09;;;16.82;100.00
45894;BME280;31603;51.148;16.932;2022-07-29T03:04:04;100360.22;;;16.78;100.00
45894;BME280;31603;51.148;16.932;2022-07-29T03:06:33;100352.19;;;16.53;100.00
45894;BME280;31603;51.148;16.932;2022-07-29T03:09:00;100368.50;;;16.50;100.00
45894;BME280;31603;51.148;16.932;2022-07-29T03:11:28;100376.16;;;16.71;100.00
45894;BME280;31603;51.148;16.932;2022-07-29T03:13:56;100369.06;;;16.52;100.00
45894;BME280;31603;51.148;16.932;2022-07-29T03:16:23;100361.50;;;16.47;100.00
45894;BME280;31603;51.148;16.932;2022-07-29T03:18:50;100386.28;;;16.77;100.00
45894;BME280;31603;51.148;16.932;2022-07-29T03:21:17;100379.16;;;16.70;100.00
45894;BME280;31603;51.148;16.932;2022-07-29T03:23:45;100385.31;;;16.83;100.00
45894;BME280;31603;51.148;16.932;2022-07-29T03:26:11;100318.09;;;16.29;100.00
45894;BME280;31603;51.148;16.932;2022-07-29T03:28:40;100381.97;;;16.81;100.00
45894;BME280;31603;51.148;16.932;2022-07-29T03:31:06;100371.97;;;16.57;100.00
45894;BME280;31603;51.148;16.932;2022-07-29T03:33:33;100368.81;;;16.65;100.00
45894;BME280;31603;51.148;16.932;2022-07-29T03:36:01;100362.41;;;16.76;100.00
45894;BME280;31603;51.148;16.932;2022-07-29T03:38:29;100365.53;;;16.68;100.00
45894;BME280;31603;51.148;16.932;2022-07-29T03:41:01;100373.50;;;17.05;100.00
45894;BME280;31603;51.148;16.932;2022-07-29T03:43:30;100381.78;;;16.88;100.00
45894;BME280;31603;51.148;16.932;2022-07-29T03:45:59;100364.34;;;16.64;100.00
45894;BME280;31603;51.148;16.932;2022-07-29T03:48:28;100386.72;;;16.98;100.00
45894;BME280;31603;51.148;16.932;2022-07-29T03:51:03;100295.69;;;16.59;100.00
45894;BME280;31603;51.148;16.932;2022-07-29T03:53:30;100392.53;;;17.13;100.00
45894;BME280;31603;51.148;16.932;2022-07-29T03:56:04;100372.19;;;16.67;100.00
45894;BME280;31603;51.148;16.932;2022-07-29T03:58:32;100390.16;;;16.76;100.00
45894;BME280;31603;51.148;16.932;2022-07-29T04:00:59;100389.91;;;16.66;100.00
45894;BME280;31603;51.148;16.932;2022-07-29T04:03:26;100381.25;;;16.74;100.00
45894;BME280;31603;51.148;16.932;2022-07-29T04:06:03;100364.50;;;16.57;100.00
45894;BME280;31603;51.148;16.932;2022-07-29T04:08:31;100392.53;;;16.96;100.00
45894;BME280;31603;51.148;16.932;2022-07-29T04:10:58;100390.53;;;17.08;100.00
45894;BME280;31603;51.148;16.932;2022-07-29T04:13:26;100379.19;;;17.27;100.00
45894;BME280;31603;51.148;16.932;2022-07-29T04:15:52;100380.38;;;17.31;100.00
45894;BME280;31603;51.148;16.932;2022-07-29T04:18:19;100367.03;;;17.16;100.00
45894;BME280;31603;51.148;16.932;2022-07-29T04:20:50;100354.88;;;16.89;100.00
45894;BME280;31603;51.148;16.932;2022-07-29T04:23:16;100328.50;;;16.91;100.00
45894;BME280;31603;51.148;16.932;2022-07-29T04:25:43;100369.06;;;17.21;100.00
45894;BME280;31603;51.148;16.932;2022-07-29T04:28:10;100379.72;;;17.74;100.00
45894;BME280;31603;51.148;16.932;2022-07-29T04:30:38;100379.66;;;17.69;100.00
45894;BME280;31603;51.148;16.932;2022-07-29T04:33:06;100381.31;;;17.53;100.00
45894;BME280;31603;51.148;16.932;2022-07-29T04:35:35;100353.09;;;17.62;100.00
45894;BME280;31603;51.148;16.932;2022-07-29T04:38:02;100382.41;;;18.03;100.00
45894;BME280;31603;51.148;16.932;2022-07-29T04:40:29;100306.91;;;17.61;100.00
45894;BME280;31603;51.148;16.932;2022-07-29T04:42:55;100388.03;;;18.25;100.00
45894;BME280;31603;51.148;16.932;2022-07-29T04:45:22;100382.94;;;18.00;100.00
45894;BME280;31603;51.148;16.932;2022-07-29T04:47:51;100387.22;;;17.74;100.00
45894;BME280;31603;51.148;16.932;2022-07-29T04:50:21;100372.25;;;18.31;100.00
45894;BME280;31603;51.148;16.932;2022-07-29T04:52:47;100355.75;;;18.07;100.00
45894;BME280;31603;51.148;16.932;2022-07-29T04:55:14;100369.16;;;18.49;100.00
45894;BME280;31603;51.148;16.932;2022-07-29T04:57:40;100383.97;;;18.55;100.00
45894;BME280;31603;51.148;16.932;2022-07-29T05:00:08;100391.25;;;18.56;100.00
45894;BME280;31603;51.148;16.932;2022-07-29T05:02:36;100384.88;;;18.38;100.00
45894;BME280;31603;51.148;16.932;2022-07-29T05:05:04;100395.28;;;18.48;100.00
45894;BME280;31603;51.148;16.932;2022-07-29T05:07:31;100390.06;;;18.73;98.85
45894;BME280;31603;51.148;16.932;2022-07-29T05:09:57;100386.22;;;18.74;100.00
45894;BME280;31603;51.148;16.932;2022-07-29T05:12:24;100386.72;;;18.71;100.00
45894;BME280;31603;51.148;16.932;2022-07-29T05:15:13;100325.75;;;18.53;98.83
45894;BME280;31603;51.148;16.932;2022-07-29T05:17:47;100337.53;;;18.60;98.03
45894;BME280;31603;51.148;16.932;2022-07-29T05:20:22;100382.44;;;18.86;97.84
45894;BME280;31603;51.148;16.932;2022-07-29T05:23:00;100395.75;;;19.33;94.44
45894;BME280;31603;51.148;16.932;2022-07-29T05:25:39;100377.28;;;19.27;94.80
45894;BME280;31603;51.148;16.932;2022-07-29T05:28:05;100400.25;;;19.39;93.60
45894;BME280;31603;51.148;16.932;2022-07-29T05:30:32;100389.56;;;19.26;93.59
45894;BME280;31603;51.148;16.932;2022-07-29T05:32:58;100343.09;;;19.09;93.99
45894;BME280;31603;51.148;16.932;2022-07-29T05:35:26;100390.63;;;19.52;93.28
45894;BME280;31603;51.148;16.932;2022-07-29T05:37:53;100398.56;;;19.33;92.72
45894;BME280;31603;51.148;16.932;2022-07-29T05:40:19;100386.56;;;19.32;93.28
45894;BME280;31603;51.148;16.932;2022-07-29T05:42:46;100393.22;;;19.58;92.32
45894;BME280;31603;51.148;16.932;2022-07-29T05:45:26;100286.59;;;18.87;90.61
45894;BME280;31603;51.148;16.932;2022-07-29T05:47:54;100384.47;;;19.77;88.56
45894;BME280;31603;51.148;16.932;2022-07-29T05:50:22;100371.31;;;19.72;88.66
45894;BME280;31603;51.148;16.932;2022-07-29T05:52:53;100345.56;;;19.33;89.97
45894;BME280;31603;51.148;16.932;2022-07-29T05:55:21;100395.41;;;19.83;87.95
45894;BME280;31603;51.148;16.932;2022-07-29T05:57:48;100377.84;;;19.88;85.69
45894;BME280;31603;51.148;16.932;2022-07-29T06:00:17;100389.59;;;19.90;86.44
45894;BME280;31603;51.148;16.932;2022-07-29T06:02:43;100388.19;;;19.92;84.39
45894;BME280;31603;51.148;16.932;2022-07-29T06:05:10;100369.09;;;19.74;82.61
45894;BME280;31603;51.148;16.932;2022-07-29T06:07:36;100389.09;;;19.98;81.42
45894;BME280;31603;51.148;16.932;2022-07-29T06:10:05;100388.72;;;20.27;78.37
45894;BME280;31603;51.148;16.932;2022-07-29T06:12:33;100364.94;;;20.19;77.37
45894;BME280;31603;51.148;16.932;2022-07-29T06:15:01;100395.47;;;20.36;76.10
45894;BME280;31603;51.148;16.932;2022-07-29T06:17:28;100340.22;;;20.01;74.75
45894;BME280;31603;51.148;16.932;2022-07-29T06:19:54;100394.63;;;20.30;76.15
45894;BME280;31603;51.148;16.932;2022-07-29T06:22:21;100379.50;;;20.26;75.64
45894;BME280;31603;51.148;16.932;2022-07-29T06:24:47;100390.63;;;20.21;76.70
45894;BME280;31603;51.148;16.932;2022-07-29T06:27:15;100389.63;;;20.42;76.66
45894;BME280;31603;51.148;16.932;2022-07-29T06:29:41;100369.00;;;20.49;72.87
45894;BME280;31603;51.148;16.932;2022-07-29T06:32:08;100369.00;;;21.22;69.60
45894;BME280;31603;51.148;16.932;2022-07-29T06:34:35;100328.94;;;20.85;66.13
45894;BME280;31603;51.148;16.932;2022-07-29T06:37:05;100368.47;;;21.40;66.72
45894;BME280;31603;51.148;16.932;2022-07-29T06:39:33;100377.72;;;21.56;65.30
45894;BME280;31603;51.148;16.932;2022-07-29T06:42:00;100377.72;;;21.51;63.76
45894;BME280;31603;51.148;16.932;2022-07-29T06:44:28;100389.63;;;21.05;65.95
45894;BME280;31603;51.148;16.932;2022-07-29T06:46:55;100402.06;;;21.60;64.35
45894;BME280;31603;51.148;16.932;2022-07-29T06:49:21;100393.59;;;21.20;65.19
45894;BME280;31603;51.148;16.932;2022-07-29T06:51:49;100357.16;;;20.94;65.47
45894;BME280;31603;51.148;16.932;2022-07-29T06:54:24;100403.75;;;21.82;62.14
45894;BME280;31603;51.148;16.932;2022-07-29T06:56:50;100406.00;;;21.90;62.77
45894;BME280;31603;51.148;16.932;2022-07-29T06:59:17;100401.78;;;21.93;62.26
45894;BME280;31603;51.148;16.932;2022-07-29T07:01:45;100404.88;;;22.01;60.36
45894;BME280;31603;51.148;16.932;2022-07-29T07:04:11;100403.19;;;22.21;60.20
45894;BME280;31603;51.148;16.932;2022-07-29T07:06:39;100396.72;;;22.00;60.33
45894;BME280;31603;51.148;16.932;2022-07-29T07:09:05;100387.78;;;22.03;59.86
45894;BME280;31603;51.148;16.932;2022-07-29T07:11:32;100391.41;;;22.08;59.34
45894;BME280;31603;51.148;16.932;2022-07-29T07:13:58;100398.06;;;22.53;58.50
45894;BME280;31603;51.148;16.932;2022-07-29T07:16:25;100392.84;;;22.91;55.69
45894;BME280;31603;51.148;16.932;2022-07-29T07:18:53;100402.13;;;22.87;55.08
45894;BME280;31603;51.148;16.932;2022-07-29T07:21:19;100384.81;;;23.24;54.82
45894;BME280;31603;51.148;16.932;2022-07-29T07:23:46;100367.91;;;23.34;54.09
45894;BME280;31603;51.148;16.932;2022-07-29T07:26:12;100378.09;;;23.64;52.64
45894;BME280;31603;51.148;16.932;2022-07-29T07:28:39;100377.38;;;23.48;54.23
45894;BME280;31603;51.148;16.932;2022-07-29T07:31:05;100390.16;;;23.70;51.98
45894;BME280;31603;51.148;16.932;2022-07-29T07:33:32;100369.88;;;23.39;52.13
45894;BME280;31603;51.148;16.932;2022-07-29T07:36:01;100396.63;;;23.65;51.08
45894;BME280;31603;51.148;16.932;2022-07-29T07:38:28;100398.28;;;23.66;51.33
45894;BME280;31603;51.148;16.932;2022-07-29T07:40:56;100389.53;;;23.39;51.55
45894;BME280;31603;51.148;16.932;2022-07-29T07:43:23;100350.53;;;22.93;52.35
45894;BME280;31603;51.148;16.932;2022-07-29T07:45:49;100362.25;;;23.00;53.13
45894;BME280;31603;51.148;16.932;2022-07-29T07:48:18;100373.19;;;23.06;52.86
45894;BME280;31603;51.148;16.932;2022-07-29T07:50:45;100369.44;;;23.55;52.25
45894;BME280;31603;51.148;16.932;2022-07-29T07:53:13;100380.41;;;23.91;50.78
45894;BME280;31603;51.148;16.932;2022-07-29T07:55:40;100361.53;;;23.68;51.10
45894;BME280;31603;51.148;16.932;2022-07-29T07:58:06;100378.00;;;24.09;50.98
45894;BME280;31603;51.148;16.932;2022-07-29T08:00:34;100360.78;;;24.15;49.95
45894;BME280;31603;51.148;16.932;2022-07-29T08:03:02;100357.44;;;24.13;49.91
45894;BME280;31603;51.148;16.932;2022-07-29T08:05:28;100378.53;;;24.40;49.33
45894;BME280;31603;51.148;16.932;2022-07-29T08:07:56;100360.81;;;24.39;49.02
45894;BME280;31603;51.148;16.932;2022-07-29T08:10:28;100381.34;;;24.64;49.47
45894;BME280;31603;51.148;16.932;2022-07-29T08:13:12;100371.25;;;24.63;48.21
45894;BME280;31603;51.148;16.932;2022-07-29T08:15:39;100377.41;;;25.64;46.51
45894;BME280;31603;51.148;16.932;2022-07-29T08:18:08;100376.19;;;25.52;46.40
45894;BME280;31603;51.148;16.932;2022-07-29T08:20:35;100368.75;;;25.23;47.08
45894;BME280;31603;51.148;16.932;2022-07-29T08:23:05;100305.75;;;24.81;47.36
45894;BME280;31603;51.148;16.932;2022-07-29T08:25:36;100319.00;;;24.57;47.28
45894;BME280;31603;51.148;16.932;2022-07-29T08:28:11;100315.00;;;24.63;48.17
45894;BME280;31603;51.148;16.932;2022-07-29T08:30:47;100331.53;;;24.45;48.71
45894;BME280;31603;51.148;16.932;2022-07-29T08:33:20;100286.69;;;24.54;47.32
45894;BME280;31603;51.148;16.932;2022-07-29T08:35:48;100291.34;;;24.45;47.97
45894;BME280;31603;51.148;16.932;2022-07-29T08:38:35;100319.50;;;24.83;47.85
45894;BME280;31603;51.148;16.932;2022-07-29T08:41:03;100360.75;;;25.49;47.38
45894;BME280;31603;51.148;16.932;2022-07-29T08:43:29;100381.50;;;25.72;46.40
45894;BME280;31603;51.148;16.932;2022-07-29T08:45:57;100385.69;;;25.75;46.55
45894;BME280;31603;51.148;16.932;2022-07-29T08:48:26;100383.28;;;26.01;45.32
45894;BME280;31603;51.148;16.932;2022-07-29T08:50:54;100379.16;;;25.60;46.10
45894;BME280;31603;51.148;16.932;2022-07-29T08:53:25;100381.41;;;25.77;45.70
45894;BME280;31603;51.148;16.932;2022-07-29T08:55:53;100328.84;;;25.54;45.67
45894;BME280;31603;51.148;16.932;2022-07-29T09:01:27;100369.69;;;26.49;43.92
45894;BME280;31603;51.148;16.932;2022-07-29T09:06:54;100328.16;;;25.95;44.49
45894;BME280;31603;51.148;16.932;2022-07-29T09:09:22;100345.94;;;25.76;44.61
45894;BME280;31603;51.148;16.932;2022-07-29T09:11:53;100329.13;;;25.71;44.76
45894;BME280;31603;51.148;16.932;2022-07-29T09:14:27;100328.69;;;25.78;44.78
45894;BME280;31603;51.148;16.932;2022-07-29T09:17:05;100271.59;;;26.05;43.76
45894;BME280;31603;51.148;16.932;2022-07-29T09:19:33;100262.19;;;26.23;42.94
45894;BME280;31603;51.148;16.932;2022-07-29T09:22:03;100358.47;;;26.30;43.86
45894;BME280;31603;51.148;16.932;2022-07-29T09:24:38;100357.03;;;26.60;43.49
45894;BME280;31603;51.148;16.932;2022-07-29T09:27:19;100314.59;;;26.10;43.38
45894;BME280;31603;51.148;16.932;2022-07-29T09:29:59;100349.19;;;26.71;42.73
45894;BME280;31603;51.148;16.932;2022-07-29T09:35:37;100270.13;;;25.93;42.48
45894;BME280;31603;51.148;16.932;2022-07-29T09:38:11;100335.31;;;26.75;41.96
45894;BME280;31603;51.148;16.932;2022-07-29T09:40:56;100278.28;;;26.36;42.06
45894;BME280;31603;51.148;16.932;2022-07-29T09:43:23;100303.63;;;26.78;41.45
45894;BME280;31603;51.148;16.932;2022-07-29T09:46:10;100341.59;;;27.22;41.29
45894;BME280;31603;51.148;16.932;2022-07-29T09:48:40;100334.06;;;26.81;42.16
45894;BME280;31603;51.148;16.932;2022-07-29T09:51:18;100262.69;;;26.80;40.76
45894;BME280;31603;51.148;16.932;2022-07-29T09:53:49;100310.34;;;27.18;40.89
45894;BME280;31603;51.148;16.932;2022-07-29T09:56:37;100344.25;;;27.63;39.80
45894;BME280;31603;51.148;16.932;2022-07-29T09:59:07;100309.31;;;27.14;40.15
45894;BME280;31603;51.148;16.932;2022-07-29T10:01:34;100336.72;;;27.00;40.59
45894;BME280;31603;51.148;16.932;2022-07-29T10:04:05;100239.56;;;26.78;40.45
45894;BME280;31603;51.148;16.932;2022-07-29T10:06:34;100317.38;;;27.07;41.00
45894;BME280;31603;51.148;16.932;2022-07-29T10:09:07;100321.25;;;27.56;39.44
45894;BME280;31603;51.148;16.932;2022-07-29T10:11:38;100240.41;;;26.79;40.79
45894;BME280;31603;51.148;16.932;2022-07-29T10:14:05;100337.91;;;27.80;40.44
45894;BME280;31603;51.148;16.932;2022-07-29T10:16:40;100263.09;;;27.55;40.08
45894;BME280;31603;51.148;16.932;2022-07-29T10:19:08;100332.13;;;28.16;39.22
45894;BME280;31603;51.148;16.932;2022-07-29T10:21:37;100299.72;;;27.82;39.72
45894;BME280;31603;51.148;16.932;2022-07-29T10:24:09;100324.38;;;27.99;40.02
45894;BME280;31603;51.148;16.932;2022-07-29T10:26:35;100325.84;;;28.59;38.73
45894;BME280;31603;51.148;16.932;2022-07-29T10:29:06;100317.91;;;28.78;38.06
45894;BME280;31603;51.148;16.932;2022-07-29T10:31:41;100317.63;;;29.06;38.01
45894;BME280;31603;51.148;16.932;2022-07-29T10:34:13;100295.72;;;28.72;37.73
45894;BME280;31603;51.148;16.932;2022-07-29T10:36:53;100340.13;;;29.02;37.92
45894;BME280;31603;51.148;16.932;2022-07-29T10:39:36;100257.44;;;28.66;37.09
45894;BME280;31603;51.148;16.932;2022-07-29T10:42:13;100295.16;;;29.27;36.82
45894;BME280;31603;51.148;16.932;2022-07-29T10:45:05;100280.63;;;29.37;36.95
45894;BME280;31603;51.148;16.932;2022-07-29T10:47:32;100316.66;;;29.02;37.73
45894;BME280;31603;51.148;16.932;2022-07-29T10:50:01;100306.22;;;28.63;38.04
45894;BME280;31603;51.148;16.932;2022-07-29T10:52:54;100325.72;;;28.90;37.95
45894;BME280;31603;51.148;16.932;2022-07-29T10:55:32;100314.59;;;28.94;37.37
45894;BME280;31603;51.148;16.932;2022-07-29T10:58:13;100282.16;;;29.09;37.63
45894;BME280;31603;51.148;16.932;2022-07-29T11:00:40;100301.66;;;29.27;37.27
45894;BME280;31603;51.148;16.932;2022-07-29T11:03:06;100304.16;;;29.03;37.53
45894;BME280;31603;51.148;16.932;2022-07-29T11:05:51;100294.81;;;29.02;37.56
45894;BME280;31603;51.148;16.932;2022-07-29T11:08:23;100247.13;;;28.13;38.11
45894;BME280;31603;51.148;16.932;2022-07-29T11:10:52;100271.09;;;28.15;38.80
45894;BME280;31603;51.148;16.932;2022-07-29T11:13:50;100300.50;;;28.54;38.32
45894;BME280;31603;51.148;16.932;2022-07-29T11:16:18;100294.25;;;28.74;38.37
45894;BME280;31603;51.148;16.932;2022-07-29T11:19:22;100277.69;;;28.50;38.56
45894;BME280;31603;51.148;16.932;2022-07-29T11:21:49;100291.31;;;29.06;37.58
45894;BME280;31603;51.148;16.932;2022-07-29T11:24:22;100302.81;;;29.26;37.94
45894;BME280;31603;51.148;16.932;2022-07-29T11:27:12;100292.50;;;29.13;37.74
45894;BME280;31603;51.148;16.932;2022-07-29T11:29:49;100225.31;;;28.04;39.07
45894;BME280;31603;51.148;16.932;2022-07-29T11:32:17;100293.53;;;28.12;39.24
45894;BME280;31603;51.148;16.932;2022-07-29T11:34:47;100291.63;;;28.29;39.44
45894;BME280;31603;51.148;16.932;2022-07-29T11:37:24;100304.38;;;28.58;39.03
45894;BME280;31603;51.148;16.932;2022-07-29T11:40:19;100267.91;;;28.08;39.04
45894;BME280;31603;51.148;16.932;2022-07-29T11:42:52;100255.59;;;28.04;39.41
45894;BME280;31603;51.148;16.932;2022-07-29T11:45:46;100302.75;;;28.74;38.81
45894;BME280;31603;51.148;16.932;2022-07-29T11:51:19;100271.25;;;28.67;38.42
45894;BME280;31603;51.148;16.932;2022-07-29T11:53:57;100270.31;;;28.32;39.10
45894;BME280;31603;51.148;16.932;2022-07-29T11:56:39;100283.59;;;28.23;39.22
45894;BME280;31603;51.148;16.932;2022-07-29T11:59:19;100226.06;;;27.88;39.41
45894;BME280;31603;51.148;16.932;2022-07-29T12:01:59;100254.31;;;28.19;39.87
45894;BME280;31603;51.148;16.932;2022-07-29T12:05:51;100289.56;;;28.61;38.77
45894;BME280;31603;51.148;16.932;2022-07-29T12:08:12;100235.78;;;28.04;39.41
45894;BME280;31603;51.148;16.932;2022-07-29T12:10:44;100283.09;;;28.69;38.04
45894;BME280;31603;51.148;16.932;2022-07-29T12:19:20;100256.59;;;29.52;36.35
45894;BME280;31603;51.148;16.932;2022-07-29T12:22:08;100257.16;;;30.01;35.29
45894;BME280;31603;51.148;16.932;2022-07-29T12:25:19;100231.59;;;29.54;35.89
45894;BME280;31603;51.148;16.932;2022-07-29T12:27:39;100253.72;;;29.87;35.74
45894;BME280;31603;51.148;16.932;2022-07-29T12:30:12;100240.53;;;29.91;35.54
45894;BME280;31603;51.148;16.932;2022-07-29T12:32:44;100264.25;;;29.78;36.03
45894;BME280;31603;51.148;16.932;2022-07-29T12:35:35;100172.03;;;29.24;36.37
45894;BME280;31603;51.148;16.932;2022-07-29T12:38:02;100262.28;;;29.69;36.98
45894;BME280;31603;51.148;16.932;2022-07-29T12:40:51;100256.59;;;29.52;36.54
45894;BME280;31603;51.148;16.932;2022-07-29T12:43:52;100204.63;;;29.48;36.61
45894;BME280;31603;51.148;16.932;2022-07-29T12:46:43;100178.38;;;29.13;36.52
45894;BME280;31603;51.148;16.932;2022-07-29T12:49:25;100177.06;;;29.01;36.65
45894;BME280;31603;51.148;16.932;2022-07-29T12:51:54;100247.78;;;29.62;36.21
45894;BME280;31603;51.148;16.932;2022-07-29T12:54:26;100171.69;;;29.17;36.00
45894;BME280;31603;51.148;16.932;2022-07-29T12:57:09;100189.59;;;29.65;35.84
45894;BME280;31603;51.148;16.932;2022-07-29T12:59:38;100238.66;;;29.31;37.11
45894;BME280;31603;51.148;16.932;2022-07-29T13:02:05;100186.72;;;29.00;36.65
45894;BME280;31603;51.148;16.932;2022-07-29T13:14:09;100232.28;;;29.51;37.32
45894;BME280;31603;51.148;16.932;2022-07-29T13:17:00;100191.03;;;28.63;38.48
45894;BME280;31603;51.148;16.932;2022-07-29T13:19:36;100217.34;;;28.72;38.30
45894;BME280;31603;51.148;16.932;2022-07-29T13:22:02;100230.97;;;28.70;38.21
45894;BME280;31603;51.148;16.932;2022-07-29T13:24:29;100205.91;;;28.20;39.39